Observations for NANTES CHATEAU, France (LFRS)

LFRS 200730Z AUTO VRB02KT 3100 BR OVC047 05/05 Q1034 BECMG 9999 NSW 
LFRS 200700Z AUTO 15003KT 2300 BR OVC047 05/05 Q1034 TEMPO VV/// BECMG 9999 NSW 
LFRS 200630Z AUTO 14003KT 100V170 2500 BR VV/// 05/04 Q1033 BECMG 9999 NSW BKN040   
LFRS 200600Z AUTO 18003KT 3000 BR VV/// 04/03 Q1033 TEMPO 0400 FG   
LFRS 200530Z AUTO 17002KT 2900 BR BKN001 OVC049 04/03 Q1033 TEMPO 3000 BR VV/// 
LFRS 200500Z AUTO VRB02KT 3200 BR BKN001 OVC049 04/04 Q1033 TEMPO 0400 FG VV/// 
LFRS 200430Z AUTO 16002KT 0900 0650 R03/1100U R21/P2000 FG FEW002 OVC049 03/03 Q1033 TEMPO 0400 FG VV///
LFRS 200400Z AUTO 14002KT 0500 0450 R03/0550N R21/1000D FG VV/// 03/03 Q1033 NOSIG  
LFRS 200330Z AUTO 13001KT 1400 0550 R03/0650D R21/P2000 BCFG FEW004 SCT049 03/03 Q1032 TEMPO 0400 FG VV///  
LFRS 200300Z AUTO 14003KT 3100 1000 R03/1700U R21/P2000 BR NSC 03/03 Q1033 TEMPO 0400 FG VV///  
LFRS 200230Z AUTO VRB02KT 4400 BR NSC 03/03 Q1033 TEMPO 0400 FG VV///   
LFRS 200200Z AUTO 32003KT 6000 1000 R03/P2000 R21/P2000 NSC 02/02 Q1033 TEMPO 0400 FG VV/// 
LFRS 200130Z AUTO 32002KT 4400 2000 BR NSC 04/03 Q1033 TEMPO 0400 FG VV///  
LFRS 200100Z AUTO 33002KT 6000 NSC 04/03 Q1033 TEMPO 0400 FG VV///  
LFRS 200030Z AUTO VRB03KT 6000 NSC 04/03 Q1033 TEMPO 0400 FG VV///  
LFRS 200000Z AUTO 00000KT 4700 R03/1100U BR NSC 05/04 Q1033 TEMPO BKN003
LFRS 192330Z AUTO 00000KT 7000 NSC 06/05 Q1033 TEMPO 3000 BR BKN003 
LFRS 192300Z AUTO 00000KT CAVOK 06/05 Q1033 TEMPO 0800 BCFG 
LFRS 192230Z AUTO 33002KT CAVOK 07/05 Q1033 TEMPO 0800 BCFG 
LFRS 192200Z AUTO 27004KT 240V310 9999 OVC047 08/06 Q1033 NOSIG 
LFRS 192130Z AUTO VRB01KT 9999 OVC049 08/06 Q1032 NOSIG 
LFRS 192100Z AUTO 26002KT CAVOK 09/07 Q1032 NOSIG   
LFRS 192030Z AUTO 23003KT CAVOK 09/07 Q1032 NOSIG   
LFRS 192000Z AUTO 27003KT 9999 OVC049 09/07 Q1032 NOSIG 
LFRS 191930Z AUTO 26003KT CAVOK 09/07 Q1031 NOSIG   
LFRS 191900Z AUTO VRB02KT CAVOK 09/07 Q1031 NOSIG   
LFRS 191830Z AUTO 30003KT 270V330 CAVOK 10/06 Q1031 NOSIG   
LFRS 191800Z AUTO 27004KT CAVOK 10/06 Q1031 NOSIG   
LFRS 191730Z AUTO 27004KT 9999 SCT038 OVC054 10/06 Q1030 NOSIG  
LFRS 191700Z AUTO 30005KT 9999 FEW039 OVC052 11/06 Q1030 NOSIG  
LFRS 191630Z AUTO 26003KT 9999 OVC045 11/06 Q1030 NOSIG 
LFRS 191600Z AUTO VRB02KT CAVOK 11/05 Q1030 TEMPO 4000 SHRA SCT026TCU   
LFRS 191530Z AUTO VRB02KT 9999 FEW037 SCT046 OVC052 11/05 Q1030 TEMPO 4000 SHRA SCT026TCU   
LFRS 191500Z AUTO VRB02KT 9999 FEW027 BKN036 OVC047 11/05 Q1030 TEMPO 4000 SHRA SCT026TCU   
LFRS 191430Z AUTO VRB02KT 9999 FEW029 OVC039 11/06 Q1030 TEMPO 4000 SHRA SCT026TCU  
LFRS 191400Z AUTO 28004KT 250V310 9999 BKN029 OVC040 10/05 Q1030 TEMPO 4000 SHRA SCT026TCU  
LFRS 191330Z AUTO 00000KT 9999 BKN030 BKN036 OVC050 11/05 Q1030 TEMPO 4000 SHRA SCT026TCU   
LFRS 191300Z AUTO VRB02KT 9999 SCT034 OVC045 11/05 Q1030 TEMPO 4000 SHRA SCT026TCU  
LFRS 191230Z AUTO 00000KT 9999 FEW035 OVC045 11/05 Q1030 TEMPO 4000 SHRA SCT026TCU  
LFRS 191200Z AUTO VRB03KT 9999 OVC033 11/06 Q1030 NOSIG 
LFRS 191130Z AUTO VRB02KT 9999 SCT031 OVC040 11/04 Q1030 NOSIG  
LFRS 191100Z AUTO 05003KT 9999 BKN033 OVC040 10/04 Q1030 NOSIG  
LFRS 191030Z AUTO 05004KT 360V080 9999 BKN031 OVC039 10/04 Q1030 NOSIG  
LFRS 191000Z AUTO VRB03KT 9999 BKN042 12/06 Q1029 NOSIG 
LFRS 190930Z AUTO VRB03KT CAVOK 10/08 Q1029 NOSIG   
LFRS 190900Z AUTO 13003KT 100V160 9999 FEW035 09/08 Q1029 TEMPO 3000 BR 
LFRS 190830Z AUTO 12003KT 9999 OVC037 08/08 Q1029 TEMPO 3000 BR 
LFRS 190800Z AUTO VRB01KT 9999 FEW007 OVC037 07/07 Q1029 TEMPO 3000 BR  
LFRS 190730Z AUTO VRB02KT 9000 OVC037 07/06 Q1029 TEMPO 3000 BR